sensor_id;sensor_type;location;lat;lon;timestamp;pressure;altitude;pressure_sealevel;temperature
20730;BMP280;10526;50.850;12.928;2023-06-19T00:01:43;97764.56;;;15.44
20730;BMP280;10526;50.850;12.928;2023-06-19T00:06:06;97760.78;;;15.42
20730;BMP280;10526;50.850;12.928;2023-06-19T00:10:28;97760.78;;;15.42
20730;BMP280;10526;50.850;12.928;2023-06-19T00:14:50;97751.56;;;15.43
20730;BMP280;10526;50.850;12.928;2023-06-19T00:19:12;97753.56;;;15.51
20730;BMP280;10526;50.850;12.928;2023-06-19T00:23:34;97742.63;;;15.59
20730;BMP280;10526;50.850;12.928;2023-06-19T00:27:57;97740.09;;;15.64
20730;BMP280;10526;50.850;12.928;2023-06-19T00:32:19;97744.63;;;15.67
20730;BMP280;10526;50.850;12.928;2023-06-19T00:36:41;97735.69;;;15.70
20730;BMP280;10526;50.850;12.928;2023-06-19T00:41:04;97734.63;;;15.68
20730;BMP280;10526;50.850;12.928;2023-06-19T00:45:27;97728.53;;;15.67
20730;BMP280;10526;50.850;12.928;2023-06-19T00:49:50;97730.91;;;15.65
20730;BMP280;10526;50.850;12.928;2023-06-19T00:54:13;97722.19;;;15.61
20730;BMP280;10526;50.850;12.928;2023-06-19T00:58:36;97723.06;;;15.58
20730;BMP280;10526;50.850;12.928;2023-06-19T01:02:58;97720.63;;;15.51
20730;BMP280;10526;50.850;12.928;2023-06-19T01:07:41;97715.94;;;15.42
20730;BMP280;10526;50.850;12.928;2023-06-19T01:12:15;97719.16;;;15.37
20730;BMP280;10526;50.850;12.928;2023-06-19T01:16:39;97718.28;;;15.40
20730;BMP280;10526;50.850;12.928;2023-06-19T01:21:15;97713.09;;;15.46
20730;BMP280;10526;50.850;12.928;2023-06-19T01:25:38;97706.56;;;15.47
20730;BMP280;10526;50.850;12.928;2023-06-19T01:30:03;97696.91;;;15.49
20730;BMP280;10526;50.850;12.928;2023-06-19T01:34:27;97699.03;;;15.55
20730;BMP280;10526;50.850;12.928;2023-06-19T01:38:51;97701.59;;;15.58
20730;BMP280;10526;50.850;12.928;2023-06-19T01:43:18;97691.16;;;15.60
20730;BMP280;10526;50.850;12.928;2023-06-19T01:47:40;97686.56;;;15.61
20730;BMP280;10526;50.850;12.928;2023-06-19T01:52:05;97686.56;;;15.61
20730;BMP280;10526;50.850;12.928;2023-06-19T01:56:27;97681.38;;;15.66
20730;BMP280;10526;50.850;12.928;2023-06-19T02:00:50;97674.69;;;15.71
20730;BMP280;10526;50.850;12.928;2023-06-19T02:05:13;97675.75;;;15.73
20730;BMP280;10526;50.850;12.928;2023-06-19T02:09:37;97673.72;;;15.77
20730;BMP280;10526;50.850;12.928;2023-06-19T02:14:00;97678.63;;;15.79
20730;BMP280;10526;50.850;12.928;2023-06-19T02:18:23;97675.06;;;15.82
20730;BMP280;10526;50.850;12.928;2023-06-19T02:22:45;97664.19;;;15.86
20730;BMP280;10526;50.850;12.928;2023-06-19T02:27:08;97666.31;;;15.91
20730;BMP280;10526;50.850;12.928;2023-06-19T02:31:29;97668.56;;;15.92
20730;BMP280;10526;50.850;12.928;2023-06-19T02:35:52;97662.75;;;15.94
20730;BMP280;10526;50.850;12.928;2023-06-19T02:40:14;97657.66;;;15.96
20730;BMP280;10526;50.850;12.928;2023-06-19T02:44:36;97668.75;;;15.98
20730;BMP280;10526;50.850;12.928;2023-06-19T02:48:58;97657.13;;;16.01
20730;BMP280;10526;50.850;12.928;2023-06-19T02:53:20;97663.88;;;16.05
20730;BMP280;10526;50.850;12.928;2023-06-19T02:57:43;97663.41;;;16.07
20730;BMP280;10526;50.850;12.928;2023-06-19T03:02:06;97660.72;;;16.07
20730;BMP280;10526;50.850;12.928;2023-06-19T03:06:28;97664.31;;;16.04
20730;BMP280;10526;50.850;12.928;2023-06-19T03:10:51;97658.59;;;16.02
20730;BMP280;10526;50.850;12.928;2023-06-19T03:15:14;97662.78;;;16.03
20730;BMP280;10526;50.850;12.928;2023-06-19T03:19:41;97654.78;;;16.12
20730;BMP280;10526;50.850;12.928;2023-06-19T03:24:03;97652.19;;;16.30
20730;BMP280;10526;50.850;12.928;2023-06-19T03:28:27;97659.69;;;16.45
20730;BMP280;10526;50.850;12.928;2023-06-19T03:32:50;97660.50;;;16.63
20730;BMP280;10526;50.850;12.928;2023-06-19T03:37:30;97661.19;;;17.41
20730;BMP280;10526;50.850;12.928;2023-06-19T03:41:56;97652.47;;;18.15
20730;BMP280;10526;50.850;12.928;2023-06-19T03:46:18;97655.44;;;18.74
20730;BMP280;10526;50.850;12.928;2023-06-19T03:50:40;97658.13;;;19.13
20730;BMP280;10526;50.850;12.928;2023-06-19T03:55:04;97664.09;;;19.56
20730;BMP280;10526;50.850;12.928;2023-06-19T03:59:26;97669.09;;;19.77
20730;BMP280;10526;50.850;12.928;2023-06-19T04:03:48;97667.22;;;19.98
20730;BMP280;10526;50.850;12.928;2023-06-19T04:08:10;97665.47;;;20.16
20730;BMP280;10526;50.850;12.928;2023-06-19T04:12:38;97669.03;;;20.22
20730;BMP280;10526;50.850;12.928;2023-06-19T04:17:01;97679.16;;;20.27
20730;BMP280;10526;50.850;12.928;2023-06-19T04:21:25;97682.97;;;20.35
20730;BMP280;10526;50.850;12.928;2023-06-19T04:25:48;97673.97;;;20.44
20730;BMP280;10526;50.850;12.928;2023-06-19T04:30:11;97677.81;;;20.52
20730;BMP280;10526;50.850;12.928;2023-06-19T04:34:33;97691.91;;;20.61
20730;BMP280;10526;50.850;12.928;2023-06-19T04:38:55;97696.66;;;20.66
20730;BMP280;10526;50.850;12.928;2023-06-19T04:43:18;97706.28;;;20.67
20730;BMP280;10526;50.850;12.928;2023-06-19T04:47:40;97707.47;;;20.66
20730;BMP280;10526;50.850;12.928;2023-06-19T04:52:14;97708.69;;;20.65
20730;BMP280;10526;50.850;12.928;2023-06-19T04:56:37;97707.78;;;20.68
20730;BMP280;10526;50.850;12.928;2023-06-19T05:00:59;97698.94;;;20.74
20730;BMP280;10526;50.850;12.928;2023-06-19T05:05:21;97696.59;;;20.81
20730;BMP280;10526;50.850;12.928;2023-06-19T05:09:45;97701.69;;;20.94
20730;BMP280;10526;50.850;12.928;2023-06-19T05:14:07;97707.28;;;21.11
20730;BMP280;10526;50.850;12.928;2023-06-19T05:18:30;97717.59;;;21.32
20730;BMP280;10526;50.850;12.928;2023-06-19T05:22:51;97712.63;;;21.51
20730;BMP280;10526;50.850;12.928;2023-06-19T05:27:14;97718.66;;;21.67
20730;BMP280;10526;50.850;12.928;2023-06-19T05:31:36;97714.53;;;21.71
20730;BMP280;10526;50.850;12.928;2023-06-19T05:35:58;97721.50;;;21.83
20730;BMP280;10526;50.850;12.928;2023-06-19T05:40:20;97725.31;;;21.97
20730;BMP280;10526;50.850;12.928;2023-06-19T05:44:42;97731.53;;;22.03
20730;BMP280;10526;50.850;12.928;2023-06-19T05:49:05;97720.47;;;22.12
20730;BMP280;10526;50.850;12.928;2023-06-19T05:53:27;97737.56;;;22.24
20730;BMP280;10526;50.850;12.928;2023-06-19T05:57:49;97739.13;;;22.36
20730;BMP280;10526;50.850;12.928;2023-06-19T06:02:11;97737.25;;;22.53
20730;BMP280;10526;50.850;12.928;2023-06-19T06:06:34;97741.56;;;22.77
20730;BMP280;10526;50.850;12.928;2023-06-19T06:10:56;97749.06;;;23.10
20730;BMP280;10526;50.850;12.928;2023-06-19T06:15:19;97748.16;;;23.35
20730;BMP280;10526;50.850;12.928;2023-06-19T06:19:41;97754.56;;;23.49
20730;BMP280;10526;50.850;12.928;2023-06-19T06:24:03;97746.41;;;23.49
20730;BMP280;10526;50.850;12.928;2023-06-19T06:28:25;97757.78;;;23.53
20730;BMP280;10526;50.850;12.928;2023-06-19T06:32:48;97754.38;;;23.58
20730;BMP280;10526;50.850;12.928;2023-06-19T06:37:10;97756.81;;;23.89
20730;BMP280;10526;50.850;12.928;2023-06-19T06:41:32;97755.28;;;24.33
20730;BMP280;10526;50.850;12.928;2023-06-19T06:45:54;97758.09;;;24.80
20730;BMP280;10526;50.850;12.928;2023-06-19T06:50:17;97752.19;;;25.22
20730;BMP280;10526;50.850;12.928;2023-06-19T06:54:39;97754.19;;;25.52
20730;BMP280;10526;50.850;12.928;2023-06-19T06:59:01;97742.97;;;25.61
20730;BMP280;10526;50.850;12.928;2023-06-19T07:03:24;97738.97;;;25.62
20730;BMP280;10526;50.850;12.928;2023-06-19T07:07:46;97738.00;;;25.59
20730;BMP280;10526;50.850;12.928;2023-06-19T07:12:08;97740.63;;;25.46
20730;BMP280;10526;50.850;12.928;2023-06-19T07:16:31;97750.16;;;25.28
20730;BMP280;10526;50.850;12.928;2023-06-19T07:20:53;97752.72;;;25.15
20730;BMP280;10526;50.850;12.928;2023-06-19T07:25:15;97754.50;;;25.07
20730;BMP280;10526;50.850;12.928;2023-06-19T07:29:37;97752.09;;;24.92
20730;BMP280;10526;50.850;12.928;2023-06-19T07:33:59;97757.63;;;24.76
20730;BMP280;10526;50.850;12.928;2023-06-19T07:38:21;97758.63;;;24.67
20730;BMP280;10526;50.850;12.928;2023-06-19T07:42:43;97766.59;;;24.59
20730;BMP280;10526;50.850;12.928;2023-06-19T07:47:07;97763.41;;;24.44
20730;BMP280;10526;50.850;12.928;2023-06-19T07:51:29;97770.84;;;24.44
20730;BMP280;10526;50.850;12.928;2023-06-19T07:55:52;97781.00;;;24.43
20730;BMP280;10526;50.850;12.928;2023-06-19T08:00:14;97783.47;;;24.41
20730;BMP280;10526;50.850;12.928;2023-06-19T08:04:37;97780.81;;;24.02
20730;BMP280;10526;50.850;12.928;2023-06-19T08:08:59;97777.34;;;23.68
20730;BMP280;10526;50.850;12.928;2023-06-19T08:13:21;97785.25;;;23.60
20730;BMP280;10526;50.850;12.928;2023-06-19T08:17:44;97779.34;;;23.73
20730;BMP280;10526;50.850;12.928;2023-06-19T08:22:06;97769.44;;;23.76
20730;BMP280;10526;50.850;12.928;2023-06-19T08:26:28;97764.75;;;23.99
20730;BMP280;10526;50.850;12.928;2023-06-19T08:30:50;97774.06;;;24.42
20730;BMP280;10526;50.850;12.928;2023-06-19T08:35:14;97774.72;;;25.17
20730;BMP280;10526;50.850;12.928;2023-06-19T08:39:37;97779.97;;;25.81
20730;BMP280;10526;50.850;12.928;2023-06-19T08:44:01;97770.06;;;25.83
20730;BMP280;10526;50.850;12.928;2023-06-19T08:48:25;97776.84;;;26.87
20730;BMP280;10526;50.850;12.928;2023-06-19T08:52:47;97781.00;;;29.73
20730;BMP280;10526;50.850;12.928;2023-06-19T08:57:10;97791.44;;;31.28
20730;BMP280;10526;50.850;12.928;2023-06-19T09:01:33;97810.56;;;31.56
20730;BMP280;10526;50.850;12.928;2023-06-19T09:05:55;97805.94;;;31.51
20730;BMP280;10526;50.850;12.928;2023-06-19T09:10:18;97805.75;;;31.04
20730;BMP280;10526;50.850;12.928;2023-06-19T09:14:44;97811.38;;;30.83
20730;BMP280;10526;50.850;12.928;2023-06-19T09:19:07;97809.72;;;30.72
20730;BMP280;10526;50.850;12.928;2023-06-19T09:23:29;97800.78;;;30.43
20730;BMP280;10526;50.850;12.928;2023-06-19T09:27:55;97801.00;;;31.57
20730;BMP280;10526;50.850;12.928;2023-06-19T09:32:25;97789.00;;;32.73
20730;BMP280;10526;50.850;12.928;2023-06-19T09:36:48;97793.81;;;34.79
20730;BMP280;10526;50.850;12.928;2023-06-19T09:41:12;97788.19;;;34.33
20730;BMP280;10526;50.850;12.928;2023-06-19T09:45:35;97786.34;;;34.99
20730;BMP280;10526;50.850;12.928;2023-06-19T09:49:57;97785.69;;;36.45
20730;BMP280;10526;50.850;12.928;2023-06-19T09:54:22;97789.63;;;37.67
20730;BMP280;10526;50.850;12.928;2023-06-19T09:58:44;97789.75;;;38.25
20730;BMP280;10526;50.850;12.928;2023-06-19T10:03:13;97790.22;;;40.32
20730;BMP280;10526;50.850;12.928;2023-06-19T10:07:36;97793.03;;;43.23
20730;BMP280;10526;50.850;12.928;2023-06-19T10:11:58;97790.84;;;42.69
20730;BMP280;10526;50.850;12.928;2023-06-19T10:16:22;97779.75;;;42.06
20730;BMP280;10526;50.850;12.928;2023-06-19T10:20:46;97789.66;;;44.43
20730;BMP280;10526;50.850;12.928;2023-06-19T10:25:23;97780.56;;;46.37
20730;BMP280;10526;50.850;12.928;2023-06-19T10:29:55;97778.16;;;48.26
20730;BMP280;10526;50.850;12.928;2023-06-19T10:34:39;97782.84;;;47.36
20730;BMP280;10526;50.850;12.928;2023-06-19T10:39:01;97781.25;;;46.07
20730;BMP280;10526;50.850;12.928;2023-06-19T10:43:24;97784.88;;;46.40
20730;BMP280;10526;50.850;12.928;2023-06-19T10:47:50;97779.75;;;44.62
20730;BMP280;10526;50.850;12.928;2023-06-19T10:52:13;97777.44;;;44.35
20730;BMP280;10526;50.850;12.928;2023-06-19T10:56:35;97770.34;;;43.72
20730;BMP280;10526;50.850;12.928;2023-06-19T11:00:58;97771.47;;;43.10
20730;BMP280;10526;50.850;12.928;2023-06-19T11:05:22;97767.16;;;42.90
20730;BMP280;10526;50.850;12.928;2023-06-19T11:09:44;97765.59;;;41.26
20730;BMP280;10526;50.850;12.928;2023-06-19T11:14:08;97763.53;;;39.88
20730;BMP280;10526;50.850;12.928;2023-06-19T11:18:30;97756.28;;;39.32
20730;BMP280;10526;50.850;12.928;2023-06-19T11:23:00;97750.50;;;38.79
20730;BMP280;10526;50.850;12.928;2023-06-19T11:27:23;97755.63;;;38.60
20730;BMP280;10526;50.850;12.928;2023-06-19T11:31:50;97751.00;;;37.94
20730;BMP280;10526;50.850;12.928;2023-06-19T11:36:12;97753.88;;;37.73
20730;BMP280;10526;50.850;12.928;2023-06-19T11:40:41;97749.97;;;37.34
20730;BMP280;10526;50.850;12.928;2023-06-19T11:45:04;97762.84;;;36.65
20730;BMP280;10526;50.850;12.928;2023-06-19T11:49:28;97750.13;;;35.43
20730;BMP280;10526;50.850;12.928;2023-06-19T11:53:56;97754.56;;;35.00
20730;BMP280;10526;50.850;12.928;2023-06-19T11:58:19;97745.63;;;34.46
20730;BMP280;10526;50.850;12.928;2023-06-19T12:02:44;97731.06;;;34.18
20730;BMP280;10526;50.850;12.928;2023-06-19T12:07:08;97732.78;;;33.70
20730;BMP280;10526;50.850;12.928;2023-06-19T12:11:31;97745.28;;;33.36
20730;BMP280;10526;50.850;12.928;2023-06-19T12:15:53;97757.66;;;32.61
20730;BMP280;10526;50.850;12.928;2023-06-19T12:20:15;97749.03;;;32.57
20730;BMP280;10526;50.850;12.928;2023-06-19T12:24:37;97746.31;;;33.06
20730;BMP280;10526;50.850;12.928;2023-06-19T12:29:00;97746.59;;;33.52
20730;BMP280;10526;50.850;12.928;2023-06-19T12:33:22;97756.88;;;33.17
20730;BMP280;10526;50.850;12.928;2023-06-19T12:37:45;97759.88;;;33.12
20730;BMP280;10526;50.850;12.928;2023-06-19T12:42:08;97761.34;;;33.13
20730;BMP280;10526;50.850;12.928;2023-06-19T12:46:30;97772.38;;;33.13
20730;BMP280;10526;50.850;12.928;2023-06-19T12:50:54;97754.59;;;32.82
20730;BMP280;10526;50.850;12.928;2023-06-19T12:55:16;97750.00;;;32.52
20730;BMP280;10526;50.850;12.928;2023-06-19T12:59:39;97753.59;;;32.29
20730;BMP280;10526;50.850;12.928;2023-06-19T13:04:01;97744.66;;;32.21
20730;BMP280;10526;50.850;12.928;2023-06-19T13:08:24;97754.00;;;31.55
20730;BMP280;10526;50.850;12.928;2023-06-19T13:12:46;97745.00;;;31.47
20730;BMP280;10526;50.850;12.928;2023-06-19T13:17:08;97747.25;;;31.41
20730;BMP280;10526;50.850;12.928;2023-06-19T13:21:31;97739.38;;;31.15
20730;BMP280;10526;50.850;12.928;2023-06-19T13:25:53;97742.63;;;30.90
20730;BMP280;10526;50.850;12.928;2023-06-19T13:30:15;97743.03;;;31.02
20730;BMP280;10526;50.850;12.928;2023-06-19T13:34:38;97748.91;;;30.99
20730;BMP280;10526;50.850;12.928;2023-06-19T13:39:00;97738.22;;;30.65
20730;BMP280;10526;50.850;12.928;2023-06-19T13:43:22;97723.94;;;30.23
20730;BMP280;10526;50.850;12.928;2023-06-19T13:47:45;97719.00;;;30.29
20730;BMP280;10526;50.850;12.928;2023-06-19T13:52:08;97717.09;;;30.60
20730;BMP280;10526;50.850;12.928;2023-06-19T13:56:31;97726.69;;;31.12
20730;BMP280;10526;50.850;12.928;2023-06-19T14:00:53;97722.44;;;31.56
20730;BMP280;10526;50.850;12.928;2023-06-19T14:05:16;97721.00;;;31.40
20730;BMP280;10526;50.850;12.928;2023-06-19T14:09:38;97717.16;;;30.98
20730;BMP280;10526;50.850;12.928;2023-06-19T14:14:04;97712.50;;;30.47
20730;BMP280;10526;50.850;12.928;2023-06-19T14:18:27;97710.69;;;30.49
20730;BMP280;10526;50.850;12.928;2023-06-19T14:22:49;97718.03;;;30.62
20730;BMP280;10526;50.850;12.928;2023-06-19T14:27:15;97728.31;;;30.69
20730;BMP280;10526;50.850;12.928;2023-06-19T14:31:37;97731.25;;;30.79
20730;BMP280;10526;50.850;12.928;2023-06-19T14:36:00;97722.09;;;30.76
20730;BMP280;10526;50.850;12.928;2023-06-19T14:40:24;97719.53;;;30.93
20730;BMP280;10526;50.850;12.928;2023-06-19T14:44:51;97718.44;;;31.12
20730;BMP280;10526;50.850;12.928;2023-06-19T14:49:13;97721.91;;;31.43
20730;BMP280;10526;50.850;12.928;2023-06-19T14:53:35;97724.25;;;31.69
20730;BMP280;10526;50.850;12.928;2023-06-19T14:57:58;97726.03;;;31.89
20730;BMP280;10526;50.850;12.928;2023-06-19T15:02:21;97706.16;;;31.98
20730;BMP280;10526;50.850;12.928;2023-06-19T15:06:43;97708.94;;;31.91
20730;BMP280;10526;50.850;12.928;2023-06-19T15:11:05;97701.13;;;31.64
20730;BMP280;10526;50.850;12.928;2023-06-19T15:15:27;97702.25;;;31.46
20730;BMP280;10526;50.850;12.928;2023-06-19T15:19:49;97700.47;;;31.26
20730;BMP280;10526;50.850;12.928;2023-06-19T15:24:11;97702.66;;;30.89
20730;BMP280;10526;50.850;12.928;2023-06-19T15:28:34;97704.84;;;30.68
20730;BMP280;10526;50.850;12.928;2023-06-19T15:32:57;97695.28;;;30.54
20730;BMP280;10526;50.850;12.928;2023-06-19T15:37:19;97706.84;;;30.52
20730;BMP280;10526;50.850;12.928;2023-06-19T15:41:44;97695.66;;;30.58
20730;BMP280;10526;50.850;12.928;2023-06-19T15:46:07;97705.72;;;30.55
20730;BMP280;10526;50.850;12.928;2023-06-19T15:50:30;97693.06;;;30.37
20730;BMP280;10526;50.850;12.928;2023-06-19T15:54:52;97683.13;;;30.34
20730;BMP280;10526;50.850;12.928;2023-06-19T15:59:14;97683.53;;;30.38
20730;BMP280;10526;50.850;12.928;2023-06-19T16:03:37;97680.06;;;30.45
20730;BMP280;10526;50.850;12.928;2023-06-19T16:08:00;97685.38;;;30.51
20730;BMP280;10526;50.850;12.928;2023-06-19T16:12:22;97678.75;;;30.39
20730;BMP280;10526;50.850;12.928;2023-06-19T16:16:45;97672.47;;;30.15
20730;BMP280;10526;50.850;12.928;2023-06-19T16:21:07;97691.03;;;29.94
20730;BMP280;10526;50.850;12.928;2023-06-19T16:25:29;97685.13;;;29.82
20730;BMP280;10526;50.850;12.928;2023-06-19T16:29:52;97687.06;;;29.67
20730;BMP280;10526;50.850;12.928;2023-06-19T16:34:14;97686.81;;;29.50
20730;BMP280;10526;50.850;12.928;2023-06-19T16:38:37;97684.78;;;29.29
20730;BMP280;10526;50.850;12.928;2023-06-19T16:42:59;97679.75;;;29.13
20730;BMP280;10526;50.850;12.928;2023-06-19T16:47:22;97679.22;;;28.93
20730;BMP280;10526;50.850;12.928;2023-06-19T16:51:46;97680.22;;;28.83
20730;BMP280;10526;50.850;12.928;2023-06-19T16:56:09;97672.97;;;28.72
20730;BMP280;10526;50.850;12.928;2023-06-19T17:00:31;97672.25;;;28.71
20730;BMP280;10526;50.850;12.928;2023-06-19T17:04:54;97679.19;;;28.72
20730;BMP280;10526;50.850;12.928;2023-06-19T17:09:18;97668.03;;;28.70
20730;BMP280;10526;50.850;12.928;2023-06-19T17:13:44;97661.75;;;28.62
20730;BMP280;10526;50.850;12.928;2023-06-19T17:18:07;97669.56;;;28.58
20730;BMP280;10526;50.850;12.928;2023-06-19T17:22:29;97658.72;;;28.53
20730;BMP280;10526;50.850;12.928;2023-06-19T17:26:52;97665.47;;;28.52
20730;BMP280;10526;50.850;12.928;2023-06-19T17:31:19;97675.91;;;28.53
20730;BMP280;10526;50.850;12.928;2023-06-19T17:35:41;97674.41;;;28.52
20730;BMP280;10526;50.850;12.928;2023-06-19T17:40:05;97671.59;;;28.45
20730;BMP280;10526;50.850;12.928;2023-06-19T17:44:29;97673.91;;;28.20
20730;BMP280;10526;50.850;12.928;2023-06-19T17:48:52;97681.50;;;28.00
20730;BMP280;10526;50.850;12.928;2023-06-19T17:53:14;97680.66;;;27.79
20730;BMP280;10526;50.850;12.928;2023-06-19T17:57:37;97686.09;;;27.66
20730;BMP280;10526;50.850;12.928;2023-06-19T18:02:00;97689.81;;;27.55
20730;BMP280;10526;50.850;12.928;2023-06-19T18:06:22;97699.13;;;27.47
20730;BMP280;10526;50.850;12.928;2023-06-19T18:10:45;97695.53;;;27.25
20730;BMP280;10526;50.850;12.928;2023-06-19T18:15:09;97701.78;;;27.07
20730;BMP280;10526;50.850;12.928;2023-06-19T18:19:31;97703.56;;;26.86
20730;BMP280;10526;50.850;12.928;2023-06-19T18:23:54;97700.75;;;26.59
20730;BMP280;10526;50.850;12.928;2023-06-19T18:28:16;97707.72;;;26.36
20730;BMP280;10526;50.850;12.928;2023-06-19T18:32:39;97710.69;;;26.14
20730;BMP280;10526;50.850;12.928;2023-06-19T18:37:01;97709.22;;;25.88
20730;BMP280;10526;50.850;12.928;2023-06-19T18:41:24;97709.94;;;25.65
20730;BMP280;10526;50.850;12.928;2023-06-19T18:45:46;97716.84;;;25.41
20730;BMP280;10526;50.850;12.928;2023-06-19T18:50:09;97712.03;;;25.17
20730;BMP280;10526;50.850;12.928;2023-06-19T18:54:33;97704.25;;;24.97
20730;BMP280;10526;50.850;12.928;2023-06-19T18:58:55;97708.03;;;24.83
20730;BMP280;10526;50.850;12.928;2023-06-19T19:03:17;97715.78;;;24.68
20730;BMP280;10526;50.850;12.928;2023-06-19T19:07:39;97714.63;;;24.52
20730;BMP280;10526;50.850;12.928;2023-06-19T19:12:03;97709.25;;;24.35
20730;BMP280;10526;50.850;12.928;2023-06-19T19:16:25;97715.50;;;24.19
20730;BMP280;10526;50.850;12.928;2023-06-19T19:20:50;97713.28;;;24.06
20730;BMP280;10526;50.850;12.928;2023-06-19T19:25:13;97713.53;;;23.97
20730;BMP280;10526;50.850;12.928;2023-06-19T19:29:36;97718.75;;;23.89
20730;BMP280;10526;50.850;12.928;2023-06-19T19:33:58;97723.69;;;23.80
20730;BMP280;10526;50.850;12.928;2023-06-19T19:38:21;97732.34;;;23.67
20730;BMP280;10526;50.850;12.928;2023-06-19T19:42:43;97729.41;;;23.54
20730;BMP280;10526;50.850;12.928;2023-06-19T19:47:05;97733.31;;;23.42
20730;BMP280;10526;50.850;12.928;2023-06-19T19:51:28;97741.22;;;23.28
20730;BMP280;10526;50.850;12.928;2023-06-19T19:55:50;97740.69;;;23.13
20730;BMP280;10526;50.850;12.928;2023-06-19T20:00:13;97737.44;;;22.98
20730;BMP280;10526;50.850;12.928;2023-06-19T20:04:39;97745.28;;;22.85
20730;BMP280;10526;50.850;12.928;2023-06-19T20:09:01;97753.13;;;22.72
20730;BMP280;10526;50.850;12.928;2023-06-19T20:13:23;97750.63;;;22.62
20730;BMP280;10526;50.850;12.928;2023-06-19T20:17:46;97757.25;;;22.56
20730;BMP280;10526;50.850;12.928;2023-06-19T20:22:08;97758.94;;;22.48
20730;BMP280;10526;50.850;12.928;2023-06-19T20:26:30;97759.88;;;22.39
20730;BMP280;10526;50.850;12.928;2023-06-19T20:30:55;97760.81;;;22.30
20730;BMP280;10526;50.850;12.928;2023-06-19T20:35:18;97766.91;;;22.20
20730;BMP280;10526;50.850;12.928;2023-06-19T20:39:41;97769.53;;;22.09
20730;BMP280;10526;50.850;12.928;2023-06-19T20:44:06;97766.66;;;21.92
20730;BMP280;10526;50.850;12.928;2023-06-19T20:48:28;97761.38;;;21.77
20730;BMP280;10526;50.850;12.928;2023-06-19T20:52:51;97763.44;;;21.62
20730;BMP280;10526;50.850;12.928;2023-06-19T20:57:16;97776.63;;;21.49
20730;BMP280;10526;50.850;12.928;2023-06-19T21:01:38;97776.97;;;21.36
20730;BMP280;10526;50.850;12.928;2023-06-19T21:06:01;97777.59;;;21.25
20730;BMP280;10526;50.850;12.928;2023-06-19T21:10:24;97765.41;;;21.15
20730;BMP280;10526;50.850;12.928;2023-06-19T21:14:47;97777.41;;;21.09
20730;BMP280;10526;50.850;12.928;2023-06-19T21:19:09;97774.28;;;20.95
20730;BMP280;10526;50.850;12.928;2023-06-19T21:23:31;97775.91;;;20.87
20730;BMP280;10526;50.850;12.928;2023-06-19T21:27:54;97778.75;;;20.78
20730;BMP280;10526;50.850;12.928;2023-06-19T21:32:16;97774.19;;;20.69
20730;BMP280;10526;50.850;12.928;2023-06-19T21:36:38;97771.44;;;20.64
20730;BMP280;10526;50.850;12.928;2023-06-19T21:41:01;97779.44;;;20.58
20730;BMP280;10526;50.850;12.928;2023-06-19T21:45:23;97783.56;;;20.54
20730;BMP280;10526;50.850;12.928;2023-06-19T21:49:46;97779.75;;;20.46
20730;BMP280;10526;50.850;12.928;2023-06-19T21:54:09;97782.38;;;20.40
20730;BMP280;10526;50.850;12.928;2023-06-19T21:58:31;97780.34;;;20.35
20730;BMP280;10526;50.850;12.928;2023-06-19T22:02:53;97776.50;;;20.27
20730;BMP280;10526;50.850;12.928;2023-06-19T22:07:16;97780.16;;;20.24
20730;BMP280;10526;50.850;12.928;2023-06-19T22:11:38;97782.50;;;20.16
20730;BMP280;10526;50.850;12.928;2023-06-19T22:16:01;97780.94;;;20.10
20730;BMP280;10526;50.850;12.928;2023-06-19T22:20:23;97774.22;;;20.05
20730;BMP280;10526;50.850;12.928;2023-06-19T22:24:46;97777.06;;;20.01
20730;BMP280;10526;50.850;12.928;2023-06-19T22:29:08;97781.19;;;19.97
20730;BMP280;10526;50.850;12.928;2023-06-19T22:33:35;97785.28;;;19.92
20730;BMP280;10526;50.850;12.928;2023-06-19T22:37:57;97785.41;;;19.83
20730;BMP280;10526;50.850;12.928;2023-06-19T22:42:19;97786.97;;;19.75
20730;BMP280;10526;50.850;12.928;2023-06-19T22:46:41;97790.03;;;19.68
20730;BMP280;10526;50.850;12.928;2023-06-19T22:51:03;97792.91;;;19.64
20730;BMP280;10526;50.850;12.928;2023-06-19T22:55:25;97783.94;;;19.58
20730;BMP280;10526;50.850;12.928;2023-06-19T22:59:48;97797.44;;;19.58
20730;BMP280;10526;50.850;12.928;2023-06-19T23:04:10;97795.25;;;19.57
20730;BMP280;10526;50.850;12.928;2023-06-19T23:08:36;97798.84;;;19.54
20730;BMP280;10526;50.850;12.928;2023-06-19T23:12:59;97799.47;;;19.49
20730;BMP280;10526;50.850;12.928;2023-06-19T23:17:22;97795.00;;;19.45
20730;BMP280;10526;50.850;12.928;2023-06-19T23:21:45;97805.25;;;19.41
20730;BMP280;10526;50.850;12.928;2023-06-19T23:26:06;97802.91;;;19.34
20730;BMP280;10526;50.850;12.928;2023-06-19T23:30:29;97794.56;;;19.23
20730;BMP280;10526;50.850;12.928;2023-06-19T23:34:52;97807.09;;;19.11
20730;BMP280;10526;50.850;12.928;2023-06-19T23:39:14;97800.97;;;19.02
20730;BMP280;10526;50.850;12.928;2023-06-19T23:43:37;97801.94;;;18.90
20730;BMP280;10526;50.850;12.928;2023-06-19T23:47:59;97807.09;;;18.78
20730;BMP280;10526;50.850;12.928;2023-06-19T23:52:22;97823.59;;;18.71
20730;BMP280;10526;50.850;12.928;2023-06-19T23:57:03;97810.59;;;18.70
